地図

経路データ

SID SEASON NUMBER BASIN SUBBASIN NAME ISO_TIME NATURE LAT LON WMO_WIND WMO_PRES WMO_AGENCY TRACK_TYPE DIST2LAND LANDFALL IFLAG USA_AGENCY USA_ATCF_ID USA_LAT USA_LON USA_RECORD USA_STATUS USA_WIND USA_PRES USA_SSHS USA_R34_NE USA_R34_SE USA_R34_SW USA_R34_NW USA_R50_NE USA_R50_SE USA_R50_SW USA_R50_NW USA_R64_NE USA_R64_SE USA_R64_SW USA_R64_NW USA_POCI USA_ROCI USA_RMW USA_EYE TOKYO_LAT TOKYO_LON TOKYO_GRADE TOKYO_WIND TOKYO_PRES TOKYO_R50_DIR TOKYO_R50_LONG TOKYO_R50_SHORT TOKYO_R30_DIR TOKYO_R30_LONG TOKYO_R30_SHORT TOKYO_LAND CMA_LAT CMA_LON CMA_CAT CMA_WIND CMA_PRES HKO_LAT HKO_LON HKO_CAT HKO_WIND HKO_PRES NEWDELHI_LAT NEWDELHI_LON NEWDELHI_GRADE NEWDELHI_WIND NEWDELHI_PRES NEWDELHI_CI NEWDELHI_DP NEWDELHI_POCI REUNION_LAT REUNION_LON REUNION_TYPE REUNION_WIND REUNION_PRES REUNION_TNUM REUNION_CI REUNION_RMW REUNION_R34_NE REUNION_R34_SE REUNION_R34_SW REUNION_R34_NW REUNION_R50_NE REUNION_R50_SE REUNION_R50_SW REUNION_R50_NW REUNION_R64_NE REUNION_R64_SE REUNION_R64_SW REUNION_R64_NW BOM_LAT BOM_LON BOM_TYPE BOM_WIND BOM_PRES BOM_TNUM BOM_CI BOM_RMW BOM_R34_NE BOM_R34_SE BOM_R34_SW BOM_R34_NW BOM_R50_NE BOM_R50_SE BOM_R50_SW BOM_R50_NW BOM_R64_NE BOM_R64_SE BOM_R64_SW BOM_R64_NW BOM_ROCI BOM_POCI BOM_EYE BOM_POS_METHOD BOM_PRES_METHOD NADI_LAT NADI_LON NADI_CAT NADI_WIND NADI_PRES WELLINGTON_LAT WELLINGTON_LON WELLINGTON_WIND WELLINGTON_PRES DS824_LAT DS824_LON DS824_STAGE DS824_WIND DS824_PRES TD9636_LAT TD9636_LON TD9636_STAGE TD9636_WIND TD9636_PRES TD9635_LAT TD9635_LON TD9635_WIND TD9635_PRES TD9635_ROCI NEUMANN_LAT NEUMANN_LON NEUMANN_CLASS NEUMANN_WIND NEUMANN_PRES MLC_LAT MLC_LON MLC_CLASS MLC_WIND MLC_PRES USA_GUST BOM_GUST BOM_GUST_PER REUNION_GUST REUNION_GUST_PER USA_SEAHGT USA_SEARAD_NE USA_SEARAD_SE USA_SEARAD_SW USA_SEARAD_NW STORM_SPEED STORM_DIR
1949256N16328 1949 75 NA NA NOT_NAMED 1949-09-13 06:00:00 TS 16.0000 -32.0000 35 hurdat_atl main 1561 1561 O_____________ hurdat_atl AL081949 16.0000 -32.0000 TS 35 0 12 330
1949256N16328 1949 75 NA NA NOT_NAMED 1949-09-13 09:00:00 TS 16.5251 -32.3147 main 1598 1598 P_____________ AL081949 16.5251 -32.3147 TS 35 0 12 330
1949256N16328 1949 75 NA NA NOT_NAMED 1949-09-13 12:00:00 TS 17.0000 -32.6000 35 hurdat_atl main 1635 1635 O_____________ hurdat_atl AL081949 17.0000 -32.6000 TS 35 0 10 331
1949256N16328 1949 75 NA NA NOT_NAMED 1949-09-13 15:00:00 TS 17.3999 -32.8174 main 1662 1662 P_____________ AL081949 17.3999 -32.8174 TS 35 0 9 340
1949256N16328 1949 75 NA NA NOT_NAMED 1949-09-13 18:00:00 TS 17.8000 -32.9000 35 hurdat_atl main 1680 1670 O_____________ hurdat_atl AL081949 17.8000 -32.9000 TS 35 0 9 3
1949256N16328 1949 75 NA NA NOT_NAMED 1949-09-13 21:00:00 TS 18.2701 -32.7804 main 1667 1636 P_____________ AL081949 18.2701 -32.7804 TS 37 0 10 16
1949256N16328 1949 75 NA NA NOT_NAMED 1949-09-14 00:00:00 TS 18.8000 -32.6000 40 hurdat_atl main 1636 1614 O_____________ hurdat_atl AL081949 18.8000 -32.6000 TS 40 0 12 11
1949256N16328 1949 75 NA NA NOT_NAMED 1949-09-14 03:00:00 TS 19.3925 -32.5423 main 1614 1606 P_____________ AL081949 19.3925 -32.5423 TS 40 0 12 5
1949256N16328 1949 75 NA NA NOT_NAMED 1949-09-14 06:00:00 TS 20.0000 -32.5000 40 hurdat_atl main 1606 1590 O_____________ hurdat_atl AL081949 20.0000 -32.5000 TS 40 0 12 6
1949256N16328 1949 75 NA NA NOT_NAMED 1949-09-14 09:00:00 TS 20.5875 -32.4076 main 1590 1577 P_____________ AL081949 20.5875 -32.4076 TS 42 0 11 10
1949256N16328 1949 75 NA NA NOT_NAMED 1949-09-14 12:00:00 TS 21.1000 -32.3000 45 hurdat_atl main 1577 1566 O_____________ hurdat_atl AL081949 21.1000 -32.3000 TS 45 0 9 12
1949256N16328 1949 75 NA NA NOT_NAMED 1949-09-14 15:00:00 TS 21.4650 -32.2073 main 1566 1556 P_____________ AL081949 21.4650 -32.2073 TS 47 0 7 15
1949256N16328 1949 75 NA NA NOT_NAMED 1949-09-14 18:00:00 TS 21.8000 -32.1000 50 hurdat_atl main 1557 1546 O_____________ hurdat_atl AL081949 21.8000 -32.1000 TS 50 0 8 18
1949256N16328 1949 75 NA NA NOT_NAMED 1949-09-14 21:00:00 TS 22.2350 -31.9427 main 1535 1525 P_____________ AL081949 22.2350 -31.9427 TS 50 0 9 17
1949256N16328 1949 75 NA NA NOT_NAMED 1949-09-15 00:00:00 TS 22.7000 -31.8000 50 hurdat_atl main 1525 1516 O_____________ hurdat_atl AL081949 22.7000 -31.8000 TS 50 0 9 12
1949256N16328 1949 75 NA NA NOT_NAMED 1949-09-15 03:00:00 TS 23.1500 -31.7422 main 1516 1516 P_____________ AL081949 23.1500 -31.7422 TS 50 0 9 5
1949256N16328 1949 75 NA NA NOT_NAMED 1949-09-15 06:00:00 TS 23.6000 -31.7000 50 hurdat_atl main 1520 1513 O_____________ hurdat_atl AL081949 23.6000 -31.7000 TS 50 0 9 8
1949256N16328 1949 75 NA NA NOT_NAMED 1949-09-15 09:00:00 TS 24.0500 -31.6075 main 1515 1508 P_____________ AL081949 24.0500 -31.6075 TS 50 0 9 11
1949256N16328 1949 75 NA NA NOT_NAMED 1949-09-15 12:00:00 TS 24.5000 -31.5000 50 hurdat_atl main 1511 1495 O_____________ hurdat_atl AL081949 24.5000 -31.5000 TS 50 0 9 12
1949256N16328 1949 75 NA NA NOT_NAMED 1949-09-15 15:00:00 TS 24.9425 -31.4073 main 1495 1470 P_____________ AL081949 24.9425 -31.4073 TS 50 0 9 11
1949256N16328 1949 75 NA NA NOT_NAMED 1949-09-15 18:00:00 TS 25.4000 -31.3000 50 hurdat_atl main 1470 1449 O_____________ hurdat_atl AL081949 25.4000 -31.3000 TS 50 0 10 13
1949256N16328 1949 75 NA NA NOT_NAMED 1949-09-15 21:00:00 TS 25.8775 -31.1648 main 1446 1415 P_____________ AL081949 25.8775 -31.1648 TS 47 0 10 15
1949256N16328 1949 75 NA NA NOT_NAMED 1949-09-16 00:00:00 TS 26.4000 -31.0000 45 hurdat_atl main 1415 1383 O_____________ hurdat_atl AL081949 26.4000 -31.0000 TS 45 0 12 16
1949256N16328 1949 75 NA NA NOT_NAMED 1949-09-16 03:00:00 TS 26.9925 -30.8149 main 1383 1355 P_____________ AL081949 26.9925 -30.8149 TS 42 0 13 17
1949256N16328 1949 75 NA NA NOT_NAMED 1949-09-16 06:00:00 TS 27.6000 -30.6000 40 hurdat_atl main 1355 1329 O_____________ hurdat_atl AL081949 27.6000 -30.6000 TS 40 0 13 19
1949256N16328 1949 75 NA NA NOT_NAMED 1949-09-16 09:00:00 TS 28.1875 -30.3427 main 1320 1298 P_____________ AL081949 28.1875 -30.3427 TS 40 0 12 22
1949256N16328 1949 75 NA NA NOT_NAMED 1949-09-16 12:00:00 TS 28.7000 -30.1000 40 hurdat_atl main 1298 1278 O_____________ hurdat_atl AL081949 28.7000 -30.1000 TS 40 0 10 22
1949256N16328 1949 75 NA NA NOT_NAMED 1949-09-16 15:00:00 TS 29.0874 -29.9197 main 1278 1269 P_____________ AL081949 29.0874 -29.9197 TS 37 0 8 21
1949256N16328 1949 75 NA NA NOT_NAMED 1949-09-16 18:00:00 TS 29.4000 -29.8000 35 hurdat_atl main 1269 1261 O_____________ hurdat_atl AL081949 29.4000 -29.8000 TS 35 0 6 15
1949256N16328 1949 75 NA NA NOT_NAMED 1949-09-16 21:00:00 TS 29.7000 -29.7351 main 1262 1262 P_____________ AL081949 29.7000 -29.7351 TS 32 -1 6 8
1949256N16328 1949 75 NA NA NOT_NAMED 1949-09-17 00:00:00 TS 30.0000 -29.7000 30 hurdat_atl main 1264 O_____________ hurdat_atl AL081949 30.0000 -29.7000 TD 30 -1 6 5

IBTrACS Databaseについて

本データベースは、米国NOAAが公開する1842年以降の世界の熱帯低気圧のベストトラックデータアーカイブInternational Best Track Archive for Climate Stewardship (IBTrACS)を、ウェブで閲覧しやすい形式に変換したものです。

最終更新日:2021-11-26